Time;durP1;ratioP1;P1;durP2;ratioP2;P2;SDS_P1;SDS_P2;PMS_P1;PMS_P2;Temp;Humidity;BMP_temperature;BMP_pressure;BME280_temperature;BME280_humidity;BME280_pressure;Samples;Min_cycle;Max_cycle;Signal;HPM_P1;HPM_P2
2024/03/12 00:00:32;;;;;;;3.58;1.45;;;7.70;99.90;;;;;;5097103;28;20060;-80
2024/03/12 00:02:57;;;;;;;4.60;2.60;;;7.50;99.90;;;;;;5101845;28;20028;-80
2024/03/12 00:05:24;;;;;;;6.72;3.05;;;7.30;99.90;;;;;;5100935;28;20035;-81
2024/03/12 00:07:53;;;;;;;2.92;1.48;;;7.00;99.90;;;;;;5100397;28;20542;-81
2024/03/12 00:10:19;;;;;;;7.32;1.30;;;7.10;99.90;;;;;;5100460;28;20031;-80
2024/03/12 00:12:49;;;;;;;3.65;1.00;;;7.30;99.90;;;;;;5100240;28;20578;-81
2024/03/12 00:15:17;;;;;;;2.95;1.25;;;7.40;99.90;;;;;;5099272;28;20767;-84
2024/03/12 00:17:43;;;;;;;2.78;1.48;;;7.30;99.90;;;;;;5100489;28;20143;-80
2024/03/12 00:20:24;;;;;;;3.10;0.93;;;7.20;99.90;;;;;;5100433;28;20124;-81
2024/03/12 00:22:50;;;;;;;2.88;1.30;;;7.00;99.90;;;;;;5098972;28;20107;-80
2024/03/12 00:25:19;;;;;;;2.80;1.17;;;7.00;99.90;;;;;;5098654;28;20028;-80
2024/03/12 00:27:51;;;;;;;2.95;1.10;;;6.90;99.90;;;;;;5101915;28;20088;-80
2024/03/12 00:30:24;;;;;;;4.57;1.60;;;6.90;99.90;;;;;;5098477;28;20028;-81
2024/03/12 00:32:54;;;;;;;3.43;1.40;;;6.90;99.90;;;;;;5099569;28;20112;-80
2024/03/12 00:35:32;;;;;;;5.38;1.20;;;6.90;99.90;;;;;;5101619;28;20779;-80
2024/03/12 00:37:58;;;;;;;2.53;1.20;;;6.70;99.90;;;;;;5101460;28;20470;-80
2024/03/12 00:40:33;;;;;;;3.50;1.08;;;6.80;99.90;;;;;;5100451;28;20063;-80
2024/03/12 00:42:59;;;;;;;2.70;1.10;;;6.80;99.90;;;;;;5100617;28;20030;-80
2024/03/12 00:45:29;;;;;;;5.88;1.50;;;6.60;99.90;;;;;;5100212;28;20055;-81
2024/03/12 00:47:54;;;;;;;4.03;1.23;;;6.70;99.90;;;;;;5100303;28;20062;-80
2024/03/12 00:50:22;;;;;;;4.55;1.48;;;6.70;99.90;;;;;;5099557;28;20027;-80
2024/03/12 00:52:52;;;;;;;3.58;1.65;;;6.50;99.90;;;;;;5101504;28;20024;-81
2024/03/12 00:55:20;;;;;;;2.22;1.13;;;6.50;99.90;;;;;;5100869;28;20028;-81
2024/03/12 00:57:50;;;;;;;2.75;1.00;;;6.60;99.90;;;;;;5099894;28;20090;-81
2024/03/12 01:00:17;;;;;;;4.13;1.42;;;6.70;99.90;;;;;;5100662;28;20086;-80
2024/03/12 01:02:49;;;;;;;2.58;1.02;;;6.70;99.90;;;;;;5100074;28;20039;-80
2024/03/12 01:05:20;;;;;;;2.90;1.00;;;6.70;99.90;;;;;;5097414;28;20039;-80
2024/03/12 01:07:47;;;;;;;3.42;1.42;;;6.80;99.90;;;;;;5098573;28;20031;-81
2024/03/12 01:10:14;;;;;;;3.80;1.52;;;6.80;99.90;;;;;;5099880;28;20485;-81
2024/03/12 01:12:40;;;;;;;6.03;2.28;;;6.70;99.90;;;;;;5098778;28;20075;-80
2024/03/12 01:15:09;;;;;;;2.92;1.30;;;6.50;99.90;;;;;;5099429;28;20027;-80
2024/03/12 01:17:39;;;;;;;3.60;1.15;;;6.60;99.90;;;;;;5101631;28;20085;-81
2024/03/12 01:20:09;;;;;;;1.95;0.93;;;6.60;99.90;;;;;;5097491;28;20431;-80
2024/03/12 01:22:39;;;;;;;2.92;1.20;;;6.60;99.90;;;;;;5099092;28;20042;-80
2024/03/12 01:25:07;;;;;;;3.17;1.20;;;6.50;99.90;;;;;;5099994;28;20035;-80
2024/03/12 01:27:37;;;;;;;3.13;0.90;;;6.50;99.90;;;;;;5099803;28;20031;-80
2024/03/12 01:30:06;;;;;;;2.40;1.10;;;6.60;99.90;;;;;;5097575;28;20048;-80
2024/03/12 01:32:36;;;;;;;6.28;1.58;;;6.60;99.90;;;;;;5099861;28;20039;-81
2024/03/12 01:35:08;;;;;;;2.00;1.15;;;6.60;99.90;;;;;;5098294;28;20513;-80
2024/03/12 01:37:36;;;;;;;3.17;1.42;;;6.60;99.90;;;;;;5099047;28;20046;-80
2024/03/12 01:40:19;;;;;;;2.05;0.95;;;6.70;99.90;;;;;;5097881;28;20048;-80
2024/03/12 01:42:48;;;;;;;3.38;1.08;;;6.80;99.90;;;;;;5099293;28;20822;-81
2024/03/12 01:45:15;;;;;;;3.75;1.20;;;6.80;99.90;;;;;;5099507;28;20024;-80
2024/03/12 01:47:40;;;;;;;3.15;1.20;;;6.70;99.90;;;;;;5098837;28;20481;-81
2024/03/12 01:50:07;;;;;;;2.85;1.00;;;6.50;99.90;;;;;;5093969;28;20031;-81
2024/03/12 01:52:33;;;;;;;2.42;1.10;;;6.50;99.90;;;;;;5100118;28;20026;-80
2024/03/12 01:54:59;;;;;;;2.03;0.82;;;6.60;99.90;;;;;;5098843;28;20031;-81
2024/03/12 01:57:24;;;;;;;4.70;1.40;;;6.50;99.90;;;;;;5099023;28;20035;-81
2024/03/12 01:59:50;;;;;;;2.30;0.85;;;6.80;99.90;;;;;;5100126;28;20031;-81
2024/03/12 02:02:17;;;;;;;3.97;1.27;;;6.80;99.90;;;;;;5098280;28;20036;-81
2024/03/12 02:04:43;;;;;;;4.25;1.08;;;6.70;99.90;;;;;;5099950;28;20040;-81
2024/03/12 02:07:11;;;;;;;2.45;0.98;;;6.70;99.90;;;;;;5098838;28;20028;-81
2024/03/12 02:09:37;;;;;;;4.25;1.13;;;6.60;99.90;;;;;;5098508;28;20032;-81
2024/03/12 02:12:03;;;;;;;2.42;1.05;;;6.70;99.90;;;;;;5098252;28;20054;-82
2024/03/12 02:14:29;;;;;;;2.63;1.35;;;6.60;99.90;;;;;;5097509;28;21031;-80
2024/03/12 02:16:55;;;;;;;2.50;1.20;;;6.50;99.90;;;;;;5097796;28;20402;-81
2024/03/12 02:19:21;;;;;;;3.10;1.10;;;6.40;99.90;;;;;;5100124;28;20134;-81
2024/03/12 02:21:47;;;;;;;3.80;1.10;;;6.30;99.90;;;;;;5097356;28;20561;-81
2024/03/12 02:24:12;;;;;;;3.53;1.13;;;6.60;99.90;;;;;;5099115;28;20433;-81
2024/03/12 02:26:38;;;;;;;3.17;1.50;;;6.70;99.90;;;;;;5098687;28;20023;-81
2024/03/12 02:29:07;;;;;;;2.85;1.30;;;6.50;99.90;;;;;;5100222;28;20032;-80
2024/03/12 02:31:36;;;;;;;3.65;1.10;;;6.60;99.90;;;;;;5095566;28;20089;-81
2024/03/12 02:34:01;;;;;;;2.35;0.98;;;6.80;99.90;;;;;;5097667;28;20122;-82
2024/03/12 02:36:27;;;;;;;3.55;0.93;;;6.80;99.90;;;;;;5099311;28;20441;-80
2024/03/12 02:38:53;;;;;;;6.47;1.60;;;6.70;99.90;;;;;;5099476;28;20043;-81
2024/03/12 02:41:21;;;;;;;5.45;1.92;;;6.30;99.90;;;;;;5096688;28;20430;-80
2024/03/12 02:43:48;;;;;;;2.30;1.00;;;6.10;99.90;;;;;;5097874;28;20074;-81
2024/03/12 02:46:14;;;;;;;3.00;1.10;;;6.60;99.90;;;;;;5102590;28;20030;-81
2024/03/12 02:48:42;;;;;;;4.50;1.10;;;6.80;99.90;;;;;;5101574;28;20047;-81
2024/03/12 02:51:08;;;;;;;3.63;1.33;;;6.80;99.90;;;;;;5102692;28;20122;-80
2024/03/12 02:53:34;;;;;;;1.98;1.00;;;6.80;99.90;;;;;;5102340;28;20030;-80
2024/03/12 02:56:00;;;;;;;3.17;1.05;;;7.10;99.90;;;;;;5101968;28;20040;-80
2024/03/12 02:58:26;;;;;;;2.25;0.82;;;7.00;99.90;;;;;;5104087;28;20084;-81
2024/03/12 03:00:53;;;;;;;3.45;0.95;;;7.00;99.90;;;;;;5103213;28;20043;-80
2024/03/12 03:03:21;;;;;;;2.45;1.17;;;7.10;99.90;;;;;;5103167;28;20043;-80
2024/03/12 03:05:48;;;;;;;2.35;0.82;;;7.10;99.90;;;;;;5101725;28;20039;-80
2024/03/12 03:08:13;;;;;;;2.95;0.60;;;7.10;99.90;;;;;;5102880;28;20648;-80
2024/03/12 03:10:39;;;;;;;2.50;0.90;;;7.00;99.90;;;;;;5100613;28;20035;-81
2024/03/12 03:13:06;;;;;;;1.63;0.82;;;7.00;99.90;;;;;;5101313;28;20396;-80
2024/03/12 03:15:32;;;;;;;4.38;1.08;;;6.90;99.90;;;;;;5102054;28;20587;-81
2024/03/12 03:18:00;;;;;;;4.25;0.93;;;6.90;99.90;;;;;;5099333;28;20043;-80
2024/03/12 03:20:27;;;;;;;2.65;1.08;;;6.90;99.90;;;;;;5102163;27;20397;-80
2024/03/12 03:22:52;;;;;;;2.58;0.80;;;6.70;99.90;;;;;;5100739;28;20090;-81
2024/03/12 03:25:18;;;;;;;2.05;1.00;;;6.90;99.90;;;;;;5101574;28;20553;-80
2024/03/12 03:27:44;;;;;;;1.30;0.70;;;6.70;99.90;;;;;;5102197;28;20050;-80
2024/03/12 03:30:12;;;;;;;1.30;0.70;;;6.80;99.90;;;;;;5100079;28;20039;-81
2024/03/12 03:32:39;;;;;;;1.88;0.80;;;6.70;99.90;;;;;;5101321;28;20028;-81
2024/03/12 03:35:05;;;;;;;1.83;0.77;;;6.60;99.90;;;;;;5101607;28;20034;-81
2024/03/12 03:37:35;;;;;;;3.75;0.90;;;6.60;99.90;;;;;;5099484;28;20040;-80
2024/03/12 03:40:04;;;;;;;1.80;0.65;;;6.50;99.90;;;;;;5102696;28;20027;-81
2024/03/12 03:42:30;;;;;;;1.35;0.63;;;6.50;99.90;;;;;;5101312;28;20084;-80
2024/03/12 03:44:56;;;;;;;2.28;0.80;;;6.40;99.90;;;;;;5102076;27;20031;-81
2024/03/12 03:47:22;;;;;;;1.95;0.88;;;6.50;99.90;;;;;;5101828;28;21024;-80
2024/03/12 03:49:47;;;;;;;2.08;1.08;;;6.50;99.90;;;;;;5101814;28;20039;-80
2024/03/12 03:52:13;;;;;;;1.13;0.60;;;6.80;99.90;;;;;;5100092;28;20027;-81
2024/03/12 03:54:39;;;;;;;4.80;0.70;;;6.70;99.90;;;;;;5103097;28;20056;-80
2024/03/12 03:57:04;;;;;;;1.42;0.50;;;6.60;99.90;;;;;;5099401;28;20080;-80
2024/03/12 03:59:31;;;;;;;5.28;0.90;;;6.40;99.90;;;;;;5100981;28;20035;-80
2024/03/12 04:01:57;;;;;;;1.80;0.73;;;6.30;99.90;;;;;;5100632;28;20550;-80
2024/03/12 04:04:24;;;;;;;2.72;0.95;;;6.40;99.90;;;;;;5096356;28;20542;-81
2024/03/12 04:06:51;;;;;;;0.85;0.60;;;6.60;99.90;;;;;;5097297;28;20039;-82
2024/03/12 04:09:17;;;;;;;1.58;0.70;;;6.50;99.90;;;;;;5095800;28;20035;-81
2024/03/12 04:11:48;;;;;;;1.77;0.88;;;6.40;99.90;;;;;;5095991;28;20653;-82
2024/03/12 04:14:14;;;;;;;3.85;1.10;;;6.30;99.90;;;;;;5096033;28;20066;-81
2024/03/12 04:16:40;;;;;;;2.10;0.95;;;6.10;99.90;;;;;;5098183;28;20130;-84
2024/03/12 04:19:06;;;;;;;2.50;1.05;;;6.00;99.90;;;;;;5093400;28;20776;-81
2024/03/12 04:21:31;;;;;;;2.83;1.10;;;6.10;99.90;;;;;;5096497;28;20533;-82
2024/03/12 04:23:57;;;;;;;3.05;1.10;;;6.10;99.90;;;;;;5098382;28;20375;-80
2024/03/12 04:26:23;;;;;;;2.67;0.95;;;6.00;99.90;;;;;;5100111;28;20035;-82
2024/03/12 04:28:49;;;;;;;2.83;0.88;;;6.00;99.90;;;;;;5098135;28;20031;-79
2024/03/12 04:31:14;;;;;;;2.33;1.00;;;6.10;99.90;;;;;;5093970;28;20131;-84
2024/03/12 04:33:40;;;;;;;2.88;1.08;;;5.90;99.90;;;;;;5089006;28;20851;-78
2024/03/12 04:36:06;;;;;;;1.90;1.08;;;5.90;99.90;;;;;;5094015;28;20082;-79
2024/03/12 04:38:33;;;;;;;2.53;1.00;;;5.80;99.90;;;;;;5093903;28;20058;-78
2024/03/12 04:41:01;;;;;;;2.75;1.10;;;5.80;99.90;;;;;;5096600;28;20063;-79
2024/03/12 04:43:26;;;;;;;1.75;0.90;;;5.80;99.90;;;;;;5099225;27;21396;-78
2024/03/12 04:45:52;;;;;;;2.78;1.17;;;5.80;99.90;;;;;;5098486;28;21226;-78
2024/03/12 04:48:18;;;;;;;2.83;1.20;;;5.80;99.90;;;;;;5097970;28;20035;-79
2024/03/12 04:50:43;;;;;;;2.40;1.10;;;5.70;99.90;;;;;;5096113;28;20055;-81
2024/03/12 04:53:09;;;;;;;1.95;0.80;;;5.90;99.90;;;;;;5099274;28;20047;-80
2024/03/12 04:55:36;;;;;;;2.70;0.98;;;5.90;99.90;;;;;;5098422;28;20037;-78
2024/03/12 04:58:08;;;;;;;2.50;1.10;;;5.90;99.90;;;;;;5097916;28;20563;-80
2024/03/12 05:00:37;;;;;;;1.33;0.63;;;5.80;99.90;;;;;;5094569;28;20040;-78
2024/03/12 05:03:03;;;;;;;1.90;0.85;;;5.90;99.90;;;;;;5094782;28;20074;-79
2024/03/12 05:05:30;;;;;;;2.25;0.80;;;5.90;99.90;;;;;;5094295;28;20114;-78
2024/03/12 05:07:56;;;;;;;2.63;1.13;;;5.80;99.90;;;;;;5095009;28;20122;-79
2024/03/12 05:10:22;;;;;;;2.80;1.20;;;5.80;99.90;;;;;;5092500;28;20040;-78
2024/03/12 05:12:50;;;;;;;3.90;0.90;;;5.80;99.90;;;;;;5093665;28;20416;-78
2024/03/12 05:15:20;;;;;;;2.35;0.93;;;5.80;99.90;;;;;;5095877;28;20166;-78
2024/03/12 05:17:48;;;;;;;2.72;0.70;;;5.80;99.90;;;;;;5094282;28;20110;-81
2024/03/12 05:20:17;;;;;;;2.60;1.10;;;5.80;99.90;;;;;;5089717;28;20386;-81
2024/03/12 05:22:46;;;;;;;3.83;1.52;;;5.80;99.90;;;;;;5095721;28;20031;-81
2024/03/12 05:25:38;;;;;;;3.75;1.60;;;5.80;99.90;;;;;;5093222;28;20119;-81
2024/03/12 05:28:08;;;;;;;5.07;1.17;;;5.70;99.90;;;;;;5094532;28;20050;-81
2024/03/12 05:30:37;;;;;;;2.83;1.15;;;5.60;99.90;;;;;;5093782;28;20115;-81
2024/03/12 05:33:10;;;;;;;2.22;0.73;;;5.70;99.90;;;;;;5093591;28;21294;-81
2024/03/12 05:35:38;;;;;;;1.52;0.70;;;5.70;99.90;;;;;;5094323;28;20039;-81
2024/03/12 05:38:11;;;;;;;2.05;0.80;;;5.70;99.90;;;;;;5093483;28;20043;-81
2024/03/12 05:40:43;;;;;;;1.27;0.70;;;5.70;99.90;;;;;;5092664;28;20080;-81
2024/03/12 05:48:39;;;;;;;1.50;0.55;;;5.40;99.90;;;;;;5094371;28;19919;-81
2024/03/12 05:51:05;;;;;;;4.07;1.75;;;5.50;99.90;;;;;;5087351;28;20040;-81
2024/03/12 05:53:30;;;;;;;2.88;1.35;;;5.60;99.90;;;;;;5092337;28;20584;-86
2024/03/12 05:55:56;;;;;;;1.85;0.75;;;5.70;99.90;;;;;;5094255;28;20501;-81
2024/03/12 05:58:22;;;;;;;2.55;0.90;;;5.80;99.90;;;;;;5092912;28;20054;-85
2024/03/12 06:00:48;;;;;;;2.15;1.02;;;5.80;99.90;;;;;;5090627;28;20554;-81
2024/03/12 06:03:14;;;;;;;3.47;1.33;;;5.70;99.90;;;;;;5093520;28;20035;-83
2024/03/12 06:05:41;;;;;;;2.90;1.20;;;5.70;99.90;;;;;;5090619;28;20714;-81
2024/03/12 06:08:07;;;;;;;4.00;1.27;;;5.60;99.90;;;;;;5091153;28;20028;-81
2024/03/12 06:10:33;;;;;;;4.88;0.98;;;5.70;99.90;;;;;;5094398;28;20038;-81
2024/03/12 06:12:58;;;;;;;2.38;1.15;;;5.60;99.90;;;;;;5092293;28;20570;-83
2024/03/12 06:15:24;;;;;;;4.22;2.38;;;5.60;99.90;;;;;;5094254;28;20398;-81
2024/03/12 06:17:49;;;;;;;7.53;3.00;;;5.70;99.90;;;;;;5090177;28;20048;-81
2024/03/12 06:20:15;;;;;;;4.95;2.03;;;5.70;99.90;;;;;;5099998;28;20165;-79
2024/03/12 06:22:44;;;;;;;2.58;1.40;;;5.70;99.90;;;;;;5093557;28;20477;-79
2024/03/12 06:25:10;;;;;;;4.10;2.00;;;5.70;99.90;;;;;;5089174;28;20597;-82
2024/03/12 06:27:37;;;;;;;4.57;1.73;;;5.80;99.90;;;;;;5092849;28;21322;-81
2024/03/12 06:30:05;;;;;;;2.28;1.10;;;5.80;99.90;;;;;;5091713;28;20032;-82
2024/03/12 06:32:31;;;;;;;3.13;1.23;;;5.90;99.90;;;;;;5101411;28;20115;-81
2024/03/12 06:34:57;;;;;;;3.25;1.70;;;6.00;99.90;;;;;;5096946;28;20027;-80
2024/03/12 06:37:23;;;;;;;3.42;1.33;;;5.90;99.90;;;;;;5093933;28;20107;-81
2024/03/12 06:39:49;;;;;;;4.80;1.20;;;5.90;99.90;;;;;;5094450;28;20020;-82
2024/03/12 06:42:19;;;;;;;2.53;0.93;;;5.90;99.90;;;;;;5093695;28;20028;-81
2024/03/12 06:44:46;;;;;;;2.38;0.85;;;6.00;99.90;;;;;;5094584;28;20023;-83
2024/03/12 06:47:12;;;;;;;3.40;1.55;;;6.00;99.90;;;;;;5093186;28;20236;-83
2024/03/12 06:49:45;;;;;;;1.33;0.57;;;6.10;99.90;;;;;;5093135;28;20027;-78
2024/03/12 06:52:17;;;;;;;1.83;0.73;;;6.10;99.90;;;;;;5093396;28;20047;-79
2024/03/12 06:54:47;;;;;;;2.35;0.70;;;6.10;99.90;;;;;;5092826;28;20027;-79
2024/03/12 06:57:13;;;;;;;2.30;0.80;;;6.20;99.90;;;;;;5093352;28;20104;-79
2024/03/12 06:59:47;;;;;;;2.60;1.10;;;6.30;99.90;;;;;;5093232;28;20031;-86
2024/03/12 07:02:22;;;;;;;2.22;0.82;;;6.30;99.90;;;;;;5093560;28;20031;-81
2024/03/12 07:04:48;;;;;;;1.83;0.70;;;6.40;99.90;;;;;;5093090;28;20020;-81
2024/03/12 07:07:20;;;;;;;1.33;0.70;;;6.50;99.90;;;;;;5093580;28;20795;-82
2024/03/12 07:09:46;;;;;;;1.88;0.88;;;6.50;99.90;;;;;;5092232;28;20042;-82
2024/03/12 07:12:14;;;;;;;1.38;0.70;;;6.50;99.90;;;;;;5093273;28;20032;-81
2024/03/12 07:14:45;;;;;;;1.63;0.70;;;6.90;99.90;;;;;;5093342;28;21460;-81
2024/03/12 07:17:11;;;;;;;1.33;0.75;;;7.10;99.90;;;;;;5092552;28;20062;-81
2024/03/12 07:19:38;;;;;;;4.20;0.80;;;7.10;99.90;;;;;;5092402;28;20035;-81
2024/03/12 07:22:07;;;;;;;1.27;0.70;;;7.10;99.90;;;;;;5093166;28;20524;-85
2024/03/12 07:24:35;;;;;;;1.70;0.50;;;7.20;99.90;;;;;;5091653;28;20039;-84
2024/03/12 07:27:04;;;;;;;1.42;0.68;;;7.30;99.90;;;;;;5093983;28;20032;-82
2024/03/12 07:29:33;;;;;;;1.38;0.50;;;7.40;99.90;;;;;;5091499;28;20039;-81
2024/03/12 07:32:03;;;;;;;1.25;0.55;;;7.40;99.90;;;;;;5093433;28;20027;-81
2024/03/12 07:34:33;;;;;;;1.42;0.73;;;7.40;99.90;;;;;;5095249;28;20031;-81
2024/03/12 07:37:00;;;;;;;1.02;0.47;;;7.40;99.90;;;;;;5067358;28;20039;-79
2024/03/12 07:39:34;;;;;;;2.50;0.68;;;7.40;99.90;;;;;;5082188;28;20047;-80
2024/03/12 07:42:23;;;;;;;2.83;0.85;;;7.40;99.90;;;;;;5069314;28;20036;-80
2024/03/12 07:44:48;;;;;;;0.98;0.52;;;7.50;99.90;;;;;;5083383;28;20044;-82
2024/03/12 07:47:53;;;;;;;;;;;;;;;;;;;;;
2024/03/12 07:50:21;;;;;;;1.45;0.63;;;7.50;99.90;;;;;;5093802;28;20044;-80
2024/03/12 07:52:46;;;;;;;1.75;0.60;;;7.50;99.90;;;;;;5096506;28;20125;-83
2024/03/12 07:55:12;;;;;;;1.75;0.80;;;7.50;99.90;;;;;;5095846;28;20058;-82
2024/03/12 07:57:38;;;;;;;1.52;0.77;;;7.60;99.90;;;;;;5096565;28;20043;-81
2024/03/12 08:00:14;;;;;;;3.25;0.95;;;7.60;99.90;;;;;;5096812;28;20076;-81
2024/03/12 08:02:40;;;;;;;1.80;0.80;;;7.60;99.90;;;;;;5097593;28;20026;-82
2024/03/12 08:05:05;;;;;;;3.28;0.60;;;7.70;99.90;;;;;;5096362;28;20024;-82
2024/03/12 08:07:31;;;;;;;1.77;0.77;;;7.80;99.90;;;;;;5096415;28;20039;-83
2024/03/12 08:10:35;;;;;;;1.73;0.80;;;7.80;99.90;;;;;;5096528;28;20031;-80
2024/03/12 08:13:06;;;;;;;3.25;0.63;;;7.80;99.90;;;;;;5093456;28;20926;-82
2024/03/12 08:15:32;;;;;;;1.23;0.80;;;7.80;99.90;;;;;;5097419;28;20023;-80
2024/03/12 08:17:57;;;;;;;1.60;0.50;;;8.10;99.90;;;;;;5096089;28;20485;-79
2024/03/12 08:20:23;;;;;;;1.73;0.60;;;8.00;99.90;;;;;;5096622;28;20422;-78
2024/03/12 08:22:49;;;;;;;5.18;0.95;;;8.00;99.90;;;;;;5097160;28;20055;-79
2024/03/12 08:25:16;;;;;;;2.45;0.70;;;8.00;99.90;;;;;;5096628;28;20477;-80
2024/03/12 08:27:42;;;;;;;2.88;1.08;;;8.10;99.90;;;;;;5096527;28;20722;-79
2024/03/12 08:30:09;;;;;;;1.48;0.70;;;8.20;99.90;;;;;;5099800;28;20126;-80
2024/03/12 08:32:38;;;;;;;2.20;0.88;;;8.20;99.90;;;;;;5098293;27;20024;-81
2024/03/12 08:35:04;;;;;;;3.10;0.55;;;8.30;99.90;;;;;;5096394;28;20035;-82
2024/03/12 08:37:29;;;;;;;2.90;0.50;;;8.30;99.90;;;;;;5095576;28;20039;-81
2024/03/12 08:39:55;;;;;;;1.13;0.45;;;8.50;99.90;;;;;;5093678;28;20050;-78
2024/03/12 08:42:21;;;;;;;2.58;1.08;;;8.60;99.90;;;;;;5089526;28;20080;-79
2024/03/12 08:44:47;;;;;;;1.90;0.70;;;8.80;99.90;;;;;;5090202;28;20640;-79
2024/03/12 08:47:14;;;;;;;0.85;0.40;;;9.00;99.90;;;;;;5088994;28;20047;-78
2024/03/12 08:49:40;;;;;;;1.83;0.70;;;9.00;99.90;;;;;;5089755;28;20057;-78
2024/03/12 08:52:06;;;;;;;2.22;0.73;;;9.00;99.90;;;;;;5091389;27;20121;-79
2024/03/12 08:54:33;;;;;;;2.03;0.70;;;8.90;99.90;;;;;;5090133;28;20570;-79
2024/03/12 08:57:00;;;;;;;1.17;0.45;;;8.90;99.90;;;;;;5092098;28;20484;-80
2024/03/12 08:59:26;;;;;;;1.98;0.68;;;9.00;99.90;;;;;;5090679;28;20040;-80
2024/03/12 09:01:57;;;;;;;1.83;0.60;;;9.00;99.90;;;;;;5089915;28;20660;-78
2024/03/12 09:04:23;;;;;;;1.25;0.50;;;9.10;99.90;;;;;;5091765;28;20034;-79
2024/03/12 09:06:49;;;;;;;4.30;0.70;;;9.30;99.90;;;;;;5088840;28;20070;-78
2024/03/12 09:09:15;;;;;;;2.00;0.75;;;9.40;99.90;;;;;;5089456;28;21278;-80
2024/03/12 09:11:42;;;;;;;1.80;0.60;;;9.50;99.90;;;;;;5091296;28;20474;-78
2024/03/12 09:14:07;;;;;;;15.23;1.80;;;9.50;99.90;;;;;;5089262;28;20058;-80
2024/03/12 09:16:34;;;;;;;4.88;1.45;;;9.70;99.90;;;;;;5089378;28;20390;-79
2024/03/12 09:19:00;;;;;;;1.80;0.70;;;10.60;99.90;;;;;;5089659;28;20138;-78
2024/03/12 09:21:27;;;;;;;1.35;0.73;;;10.30;99.90;;;;;;5089978;28;20470;-79
2024/03/12 09:23:53;;;;;;;0.60;0.30;;;10.20;99.90;;;;;;5089226;28;20046;-80
2024/03/12 09:26:19;;;;;;;1.73;0.80;;;10.00;99.60;;;;;;5091060;28;20032;-77
2024/03/12 09:28:45;;;;;;;1.02;0.65;;;10.20;99.30;;;;;;5088946;28;20030;-80
2024/03/12 09:31:10;;;;;;;5.32;0.52;;;10.30;98.20;;;;;;5089083;28;20043;-82
2024/03/12 09:33:36;;;;;;;0.95;0.50;;;11.00;99.90;;;;;;5089525;28;20365;-78
2024/03/12 09:36:03;;;;;;;1.58;0.70;;;11.20;97.00;;;;;;5088152;28;20063;-79
2024/03/12 09:38:29;;;;;;;4.75;1.73;;;11.00;97.00;;;;;;5087936;28;20083;-78
2024/03/12 09:40:59;;;;;;;4.38;0.95;;;10.90;97.30;;;;;;5089973;27;20043;-80
2024/03/12 09:43:29;;;;;;;2.95;0.90;;;11.00;96.80;;;;;;5089122;28;20072;-82
2024/03/12 09:45:56;;;;;;;2.25;0.40;;;11.20;96.60;;;;;;5090093;28;20173;-80
2024/03/12 09:48:22;;;;;;;1.25;0.68;;;11.30;96.20;;;;;;5087957;28;20042;-80
2024/03/12 09:50:49;;;;;;;3.03;0.60;;;11.60;95.10;;;;;;5088550;28;20036;-80
2024/03/12 09:53:15;;;;;;;0.82;0.43;;;11.60;95.20;;;;;;5089868;28;20035;-81
2024/03/12 09:55:44;;;;;;;0.60;0.20;;;11.90;94.90;;;;;;5088848;28;20035;-80
2024/03/12 09:58:10;;;;;;;1.48;0.82;;;12.00;95.10;;;;;;5089158;28;20050;-79
2024/03/12 10:00:37;;;;;;;1.08;0.52;;;12.00;95.70;;;;;;5092168;28;20122;-80
2024/03/12 10:03:06;;;;;;;2.40;0.77;;;12.10;94.80;;;;;;5091208;28;20128;-79
2024/03/12 10:05:34;;;;;;;1.55;0.50;;;12.20;95.60;;;;;;5090480;28;20137;-80
2024/03/12 10:08:09;;;;;;;2.22;0.50;;;12.00;95.30;;;;;;5091860;28;20038;-79
2024/03/12 10:10:39;;;;;;;0.93;0.30;;;12.10;96.00;;;;;;5091946;28;21142;-80
2024/03/12 10:13:05;;;;;;;0.95;0.32;;;12.30;94.20;;;;;;5090903;28;20016;-80
2024/03/12 10:15:31;;;;;;;0.20;0.20;;;12.40;94.00;;;;;;5090545;28;20414;-82
2024/03/12 10:18:01;;;;;;;0.82;0.32;;;12.40;94.50;;;;;;5091963;28;20059;-80
2024/03/12 10:20:27;;;;;;;1.98;0.80;;;12.60;94.10;;;;;;5091139;28;20467;-80
2024/03/12 10:23:09;;;;;;;0.63;0.20;;;12.60;93.70;;;;;;5090329;28;20043;-80
2024/03/12 10:25:35;;;;;;;0.55;0.10;;;12.80;93.60;;;;;;5089360;28;20500;-80
2024/03/12 10:28:01;;;;;;;0.50;0.30;;;13.00;93.80;;;;;;5091744;28;20043;-80
2024/03/12 10:30:28;;;;;;;0.20;0.20;;;13.00;93.20;;;;;;5090018;28;20023;-80
2024/03/12 10:32:55;;;;;;;1.55;0.38;;;13.10;92.90;;;;;;5089613;28;20035;-79
2024/03/12 10:35:21;;;;;;;0.80;0.43;;;13.20;93.40;;;;;;5091356;28;20099;-80
2024/03/12 10:37:50;;;;;;;0.40;0.30;;;13.10;92.40;;;;;;5090115;28;20151;-80
2024/03/12 10:40:19;;;;;;;1.42;0.20;;;13.20;93.10;;;;;;5089439;28;20107;-80
2024/03/12 10:42:57;;;;;;;0.40;0.20;;;13.30;93.20;;;;;;5091311;28;20027;-80
2024/03/12 10:45:24;;;;;;;0.90;0.47;;;13.30;93.00;;;;;;5091414;28;20036;-80
2024/03/12 10:47:50;;;;;;;0.65;0.30;;;13.30;93.30;;;;;;5089927;28;20132;-82
2024/03/12 10:50:16;;;;;;;0.20;0.20;;;13.40;93.30;;;;;;5090529;28;20397;-82
2024/03/12 10:52:45;;;;;;;7.82;0.50;;;13.50;93.50;;;;;;5089992;28;20425;-82
2024/03/12 10:55:23;;;;;;;0.80;0.30;;;13.60;92.30;;;;;;5089254;28;20499;-82
2024/03/12 10:57:54;;;;;;;0.90;0.40;;;13.70;92.00;;;;;;5089247;28;20164;-82
2024/03/12 11:00:20;;;;;;;1.00;0.38;;;13.80;93.80;;;;;;5089404;28;20709;-82
2024/03/12 11:02:50;;;;;;;1.27;0.47;;;13.90;93.70;;;;;;5095135;28;20111;-82
2024/03/12 11:05:19;;;;;;;2.38;0.40;;;13.90;93.40;;;;;;5095730;28;20031;-82
2024/03/12 11:07:45;;;;;;;0.88;0.22;;;14.00;93.10;;;;;;5098451;28;20433;-79
2024/03/12 11:10:13;;;;;;;1.05;0.43;;;14.10;92.40;;;;;;5099552;28;20115;-79
2024/03/12 11:12:39;;;;;;;1.90;0.70;;;14.20;92.60;;;;;;5099131;28;20084;-80
2024/03/12 11:15:09;;;;;;;0.52;0.22;;;14.30;93.10;;;;;;5099536;28;20038;-79
2024/03/12 11:17:45;;;;;;;3.30;0.60;;;14.40;94.00;;;;;;5099282;28;20051;-82
2024/03/12 11:20:12;;;;;;;1.13;0.47;;;14.50;94.20;;;;;;5098634;28;20055;-82
2024/03/12 11:22:41;;;;;;;0.90;0.35;;;14.70;94.20;;;;;;5099760;28;20082;-82
2024/03/12 11:25:08;;;;;;;1.88;0.70;;;14.70;92.90;;;;;;5099490;27;20093;-83
2024/03/12 11:27:36;;;;;;;1.33;0.40;;;14.70;91.80;;;;;;5099541;28;20029;-79
2024/03/12 11:30:03;;;;;;;0.77;0.30;;;14.70;92.70;;;;;;5099658;28;20031;-79
2024/03/12 11:32:38;;;;;;;1.35;0.45;;;14.80;91.30;;;;;;5099237;28;20028;-80
2024/03/12 11:35:27;;;;;;;1.48;0.60;;;14.80;91.00;;;;;;5099279;28;20134;-79
2024/03/12 11:37:59;;;;;;;2.65;0.40;;;15.00;91.90;;;;;;5099186;28;20054;-79
2024/03/12 11:40:30;;;;;;;2.38;0.30;;;15.00;91.00;;;;;;5099134;28;20492;-81
2024/03/12 11:42:56;;;;;;;0.90;0.40;;;15.10;90.30;;;;;;5099090;28;20019;-79
2024/03/12 11:45:54;;;;;;;0.22;0.20;;;15.10;90.80;;;;;;5098813;28;20046;-80
2024/03/12 11:48:31;;;;;;;0.22;0.20;;;15.40;89.30;;;;;;5073656;28;20127;-81
2024/03/12 11:50:59;;;;;;;0.45;0.10;;;15.60;88.00;;;;;;5099248;28;20114;-81
2024/03/12 11:53:29;;;;;;;0.98;0.43;;;15.70;89.40;;;;;;5094071;28;20045;-79
2024/03/12 11:56:06;;;;;;;1.55;0.10;;;15.80;87.70;;;;;;5097985;28;20028;-82
2024/03/12 11:59:01;;;;;;;0.50;0.20;;;16.00;87.80;;;;;;5099115;28;20100;-80
2024/03/12 12:01:31;;;;;;;0.20;0.10;;;15.90;85.40;;;;;;5095197;28;20225;-79
2024/03/12 12:04:05;;;;;;;0.85;0.20;;;16.00;87.30;;;;;;5098531;28;20126;-80
2024/03/12 12:06:32;;;;;;;2.72;0.20;;;16.00;86.80;;;;;;5099049;28;20085;-80
2024/03/12 12:09:10;;;;;;;0.17;0.17;;;16.10;87.00;;;;;;5098919;28;20023;-80
2024/03/12 12:11:37;;;;;;;0.30;0.05;;;16.20;87.00;;;;;;5098280;28;20552;-79
2024/03/12 12:14:05;;;;;;;0.90;0.40;;;16.20;85.20;;;;;;5095772;28;20032;-79
2024/03/12 12:16:31;;;;;;;1.55;0.40;;;16.30;85.70;;;;;;5095141;28;20088;-81
2024/03/12 12:19:08;;;;;;;0.32;0.20;;;16.40;83.20;;;;;;5094327;28;20105;-80
2024/03/12 12:21:35;;;;;;;1.17;0.15;;;16.50;84.70;;;;;;5094333;27;20032;-82
2024/03/12 12:24:01;;;;;;;1.38;0.30;;;16.30;83.30;;;;;;5094551;28;20019;-79
2024/03/12 12:26:29;;;;;;;0.75;0.30;;;16.40;82.20;;;;;;5096895;28;20697;-79
2024/03/12 12:28:57;;;;;;;5.60;1.05;;;16.50;83.80;;;;;;5097013;28;22023;-80
2024/03/12 12:31:26;;;;;;;0.25;0.10;;;16.60;83.70;;;;;;5097302;28;20024;-80
2024/03/12 12:33:58;;;;;;;0.52;0.20;;;16.70;82.90;;;;;;5097758;28;20023;-79
2024/03/12 12:36:30;;;;;;;3.00;0.55;;;16.80;82.70;;;;;;5097466;28;20473;-79
2024/03/12 12:39:00;;;;;;;0.47;0.20;;;16.90;83.90;;;;;;5097258;28;20031;-80
2024/03/12 12:41:34;;;;;;;0.55;0.20;;;17.00;83.00;;;;;;5096870;28;20080;-80
2024/03/12 12:44:00;;;;;;;0.45;0.15;;;16.90;80.70;;;;;;5096307;28;20599;-80
2024/03/12 12:46:27;;;;;;;1.48;0.77;;;16.90;79.40;;;;;;5096971;28;20116;-80
2024/03/12 12:48:55;;;;;;;2.17;0.28;;;17.00;81.00;;;;;;5096582;28;20271;-82
2024/03/12 12:51:25;;;;;;;0.28;0.13;;;17.10;80.90;;;;;;5096938;28;20027;-80
2024/03/12 12:54:02;;;;;;;0.80;0.20;;;17.00;78.40;;;;;;5096505;28;20089;-79
2024/03/12 12:56:28;;;;;;;0.77;0.30;;;17.00;81.20;;;;;;5095422;28;20020;-79
2024/03/12 12:58:53;;;;;;;1.17;0.63;;;17.10;80.20;;;;;;5093849;28;20520;-79
2024/03/12 13:01:25;;;;;;;0.82;0.40;;;16.90;78.00;;;;;;5092783;28;20042;-79
2024/03/12 13:03:53;;;;;;;0.10;0.08;;;17.10;82.50;;;;;;5094351;28;20027;-80
2024/03/12 13:06:21;;;;;;;0.22;0.10;;;16.90;78.70;;;;;;5093486;28;20022;-79